26 września 2022

Czas Kod Pogoda Temp. Widoczność Sufit Wiatr METAR/SPECI
19:00
V
29 °C 10 km+ 6.000 ft 140° 140° 10 kt METAR AYPY 260900Z 14010KT 9999 FEW030 BKN060 29/25 Q1006
18:00
V
29 °C 10 km+ - 150° 150° 9 kt METAR AYPY 260800Z 15009KT 9999 FUHZ SCT025 SCT050 29/25 Q1006
17:00
V
29 °C 10 km+ - 150° 150° 15 kt METAR AYPY 260700Z 15015KT 9999 FUHZ SCT025 SCT050CB 29/24 Q1005
16:00
V
31 °C 10 km+ - 140° 140° 15 kt METAR AYPY 260600Z 14015KT 9999 FUHZ SCT025 SCT050CB 31/26 Q1005
15:00
V
31 °C 10 km+ - 140° 140° 15 kt METAR AYPY 260500Z 14015KT 9999 FUHZ SCT025 31/26 Q1005=
14:00
V
32 °C 10 km+ - 190° 190° 10 - 15 kt METAR AYPY 260400Z 19010G15KT 9999 SCT030 32/25 Q1005
13:00
V
32 °C 10 km+ - 190° 190° 15 kt METAR AYPY 260300Z 19015KT 9999 FUHZ SCT025 32/26 Q1007
12:00
V
32 °C 10 km+ - 190° 190° 10 - 15 kt METAR AYPY 260200Z 19010G15KT 9999 SCT025 SCT035 32/26 Q1008
11:00
V
31 °C 10 km+ - 200° 200° 10 kt METAR AYPY 260100Z 20010KT 9999 FUHZ SCT025 31/25 Q1008
10:00
V
31 °C 10 km+ - Var Var 5 kt METAR AYPY 260000Z VRB05KT 9999 FUHZ FEW025 31/25 Q1009
09:00
V
30 °C 10 km+ - 350° 350° 8 kt METAR AYPY 252300Z 35008KT 9999 FUHZ FEW030 30/25 Q1009
08:00
V
29 °C 10 km+ - Var Var 3 kt METAR AYPY 252200Z VRB03KT 9999 HZ FEW050 29/25 Q1009
07:00
V
25 °C 10 km+ - Var Var 3 kt METAR AYPY 252100Z VRB03KT 9999 HZ FEW050 25/24 Q1009
06:00
V
24 °C 10 km+ - 320° 320° 5 kt METAR AYPY 252000Z 32005KT 9999 HZ FEW040 24/24 Q1008
05:00
V
24 °C 10 km+ - 340° 340° 5 kt METAR AYPY 251900Z 34005KT 9999 FEW030 24/24 Q1007
04:00
V
24 °C 10 km+ - 330° 330° 8 kt METAR AYPY 251800Z 33008KT 9999 FEW050 24/24 Q1007
03:00
V
25 °C 10 km+ - 330° 330° 8 kt METAR AYPY 251700Z 33008KT 9999 FEW050 25/24 Q1006
02:00
V
25 °C 10 km+ - Var Var 3 kt METAR AYPY 251600Z VRB03KT 9999 FEW050 25/24 Q1007
01:00
V
26 °C 10 km+ - Var Var 3 kt METAR AYPY 251500Z VRB03KT 9999 FEW040 26/25 Q1007
00:00
V
26 °C 10 km+ - 160° 160° 10 kt METAR AYPY 251400Z 16010KT 9999 FEW040 26/25 Q1008

25 września 2022

Czas Kod Pogoda Temp. Widoczność Sufit Wiatr METAR/SPECI
23:00
V
27 °C 10 km+ - 160° 160° 10 kt METAR AYPY 251300Z 16010KT 9999 FEW040 27/25 Q1008
22:00
V
27 °C 10 km+ - 150° 150° 10 kt METAR AYPY 251200Z 15010KT 9999 SCT050 27/25 Q1009
21:00
V
27 °C 10 km+ - 150° 150° 10 kt METAR AYPY 251100Z 15010KT 9999 SCT050 27/25 Q1008
20:00
V
28 °C 10 km+ - 140° 140° 15 kt METAR AYPY 251000Z 14015KT 9999 FEW050 28/25 Q1008
19:00
V
28 °C 10 km+ - 140° 140° 15 kt METAR AYPY 250900Z 14015KT 9999 FEW050 28/25 Q1007
18:00
V
29 °C 10 km+ - 170° 170° 15 kt METAR AYPY 250800Z 17015KT 9999 HZ FEW030 SCT050 29/25 Q1006
17:00
V
30 °C 10 km+ - 140° 140° 15 kt METAR AYPY 250700Z 14015KT 9999 HZ FEW020 SCT035 30/25 Q1005
16:00
V
31 °C 10 km+ - 170° 170° 15 kt METAR AYPY 250600Z 17015KT 9999 HZ FEW020 SCT030 31/24 Q1005
15:00
V
32 °C 10 km+ - 180° 180° 15 kt METAR AYPY 250500Z 18015KT 9999 HZ FEW020 SCT030 32/24 Q1006
14:00
V
32 °C 10 km+ - 190° 190° 15 kt METAR AYPY 250400Z 19015KT 9999 HZ FEW020 SCT030 32/24 Q1006
13:00
V
32 °C 10 km+ - 180° 180° 15 kt METAR AYPY 250300Z 18015KT 9999 HZ FEW020 SCT035 32/24 Q1007
12:00
V
31 °C 10 km+ - 200° 200° 15 kt METAR AYPY 250200Z 20015KT 9999 HZ FEW020 SCT030 31/24 Q1008
11:00
V
31 °C 10 km+ - 200° 200° 10 kt METAR AYPY 250100Z 20010KT 9999 HZ FEW020 SCT030 31/24 Q1009
10:00
V
31 °C 10 km+ - 140° 140° 8 kt METAR AYPY 250000Z 14008KT 9999 HZ FEW020 SCT035 31/24 Q1009
09:00
V
30 °C 10 km+ - 140° 140° 7 kt METAR AYPY 242300Z 14007KT 9999 HZ FEW030 30/24 Q1009
08:00
V
28 °C 10 km+ - Var Var 4 kt METAR AYPY 242200Z VRB04KT 9999 HZ FEW050 28/24 Q1009
07:00
V
24 °C 10 km+ - Var Var 2 kt METAR AYPY 242100Z VRB02KT 9999 HZ FEW050 24/24 Q1008
06:00
V
23 °C 10 km+ - Var Var 3 kt METAR AYPY 242000Z VRB03KT 9999 HZ FEW030 23/23 Q1007=
05:00
V
24 °C 10 km+ - Var Var 3 kt METAR AYPY 241900Z VRB03KT 9999 SCT035 24/23 Q1007
04:00
V
24 °C 10 km+ - Var Var 3 kt METAR AYPY 241800Z VRB03KT 9999 FEW010 SCT050 24/23 Q1007
03:00
V
24 °C 10 km+ - Var Var 4 kt METAR AYPY 241700Z VRB04KT 9999 FEW010 SCT030 24/24 Q1007
02:00
V
24 °C 10 km+ - Var Var 3 kt METAR AYPY 241600Z VRB03KT 9999 FEW010 SCT035 24/24 Q1007
01:00
V
24 °C 10 km+ - Var Var 4 kt METAR AYPY 241500Z VRB04KT 9999 SCT030 24/24 Q1008
00:00
V
25 °C 10 km+ - Var Var 3 kt METAR AYPY 241400Z VRB03KT 9999 SCT050 25/24 Q1008=

24 września 2022

Czas Kod Pogoda Temp. Widoczność Sufit Wiatr METAR/SPECI
23:00
V
25 °C 10 km+ - Var Var 3 kt METAR AYPY 241300Z VRB03KT 9999 FEW050 25/24 Q1009
22:00
V
26 °C 10 km+ - Var Var 3 kt METAR AYPY 241200Z VRB03KT 9999 FEW050 26/25 Q1009
21:00
V
26 °C 10 km+ - Var Var 3 kt METAR AYPY 241100Z VRB03KT 9999 SCT050 26/25 Q1008
20:00
V
26 °C 10 km+ - 160° 160° 5 kt METAR AYPY 241000Z 16005KT 9999 FEW040 26/25 Q1008
Starsze dane

My i osoby trzecie śledzimy twoje zachowanie w internecie na naszej stronie za pomocą plików cookie. Jeśli kontynuujesz, zakładamy, że zgadzasz się z naszą polityką plików cookie. Dowiedz się więcej